createdAt,value
2023-04-15T00:02:43.486Z,100848.22
2023-04-15T00:07:47.362Z,100854.34
2023-04-15T00:12:49.725Z,100866.53
2023-04-15T00:17:52.551Z,100869.31
2023-04-15T00:22:55.029Z,100882.09
2023-04-15T00:27:57.293Z,100892.59
2023-04-15T00:32:59.738Z,100917.50
2023-04-15T00:38:02.232Z,100921.38
2023-04-15T00:43:04.685Z,100929.94
2023-04-15T00:48:07.425Z,100937.44
2023-04-15T00:53:09.824Z,100962.88
2023-04-15T00:58:13.876Z,100956.81
2023-04-15T01:03:17.482Z,100966.75
2023-04-15T01:08:20.116Z,100987.22
2023-04-15T01:13:24.384Z,101003.53
2023-04-15T01:18:27.580Z,101010.47
2023-04-15T01:23:30.065Z,101025.94
2023-04-15T01:28:33.299Z,101033.66
2023-04-15T01:33:35.834Z,101034.25
2023-04-15T01:38:58.007Z,101040.03
2023-04-15T01:44:00.462Z,101051.94
2023-04-15T01:49:04.217Z,101067.97
2023-04-15T01:54:09.194Z,101085.69
2023-04-15T01:59:12.758Z,101097.28
2023-04-15T02:04:19.090Z,101098.97
2023-04-15T02:09:22.518Z,101101.75
2023-04-15T02:14:26.201Z,101127.19
2023-04-15T02:19:31.517Z,101131.59
2023-04-15T02:24:35.318Z,101162.59
2023-04-15T02:29:39.808Z,101167.56
2023-04-15T02:34:44.770Z,101189.97
2023-04-15T02:39:48.410Z,101191.94
2023-04-15T02:44:52.447Z,101202.47
2023-04-15T02:49:56.224Z,101227.91
2023-04-15T02:55:02.776Z,101231.25
2023-04-15T03:00:09.915Z,101221.28
2023-04-15T03:05:15.811Z,101251.69
2023-04-15T03:10:25.821Z,101261.66
2023-04-15T03:15:29.472Z,101275.56
2023-04-15T03:20:33.133Z,101289.97
2023-04-15T03:25:37.790Z,101298.28
2023-04-15T03:30:43.696Z,101316.59
2023-04-15T03:35:47.618Z,101326.03
2023-04-15T03:40:51.230Z,101338.81
2023-04-15T03:45:54.791Z,101353.56
2023-04-15T03:50:58.566Z,101354.94
2023-04-15T03:56:02.647Z,101358.25
2023-04-15T04:01:06.361Z,101360.44
2023-04-15T04:06:10.762Z,101359.59
2023-04-15T04:11:14.351Z,101366.50
2023-04-15T04:16:18.058Z,101374.81
2023-04-15T04:21:21.956Z,101370.09
2023-04-15T04:26:25.489Z,101393.34
2023-04-15T04:31:29.412Z,101395.53
2023-04-15T04:36:33.051Z,101408.06
2023-04-15T04:41:36.574Z,101409.28
2023-04-15T04:46:40.167Z,101418.97
2023-04-15T04:51:43.995Z,101413.44
2023-04-15T04:56:47.625Z,101420.66
2023-04-15T05:01:51.670Z,101432.88
2023-04-15T05:06:55.232Z,101447.00
2023-04-15T05:11:58.844Z,101443.41
2023-04-15T05:17:02.346Z,101457.19
2023-04-15T05:22:06.495Z,101477.88
2023-04-15T05:27:11.883Z,101482.53
2023-04-15T05:32:15.710Z,101486.72
2023-04-15T05:37:21.232Z,101498.78
2023-04-15T05:42:24.836Z,101506.19
2023-04-15T05:47:28.464Z,101503.34
2023-04-15T05:52:32.729Z,101512.75
2023-04-15T05:57:36.939Z,101508.72
2023-04-15T06:02:40.693Z,101524.19
2023-04-15T06:07:46.130Z,101544.59
2023-04-15T06:12:53.496Z,101549.13
2023-04-15T06:17:57.337Z,101568.31
2023-04-15T06:23:01.395Z,101587.59
2023-04-15T06:28:05.148Z,101590.94
2023-04-15T06:33:09.011Z,101603.16
2023-04-15T06:38:12.568Z,101615.09
2023-04-15T06:43:16.056Z,101611.81
2023-04-15T06:48:19.598Z,101626.69
2023-04-15T06:53:23.257Z,101628.50
2023-04-15T06:58:26.782Z,101636.59
2023-04-15T07:03:32.555Z,101646.16
2023-04-15T07:08:36.375Z,101658.09
2023-04-15T07:13:39.978Z,101643.88
2023-04-15T07:18:43.803Z,101651.78
2023-04-15T07:23:47.689Z,101668.34
2023-04-15T07:28:51.823Z,101680.13
2023-04-15T07:33:55.627Z,101665.31
2023-04-15T07:38:59.535Z,101678.09
2023-04-15T07:44:03.444Z,101676.81
2023-04-15T07:49:07.810Z,101682.25
2023-04-15T07:54:11.898Z,101688.63
2023-04-15T07:59:18.202Z,101677.38
2023-04-15T08:04:21.963Z,101689.75
2023-04-15T08:09:25.664Z,101686.97
2023-04-15T08:14:29.720Z,101690.38
2023-04-15T08:19:33.448Z,101703.81
2023-04-15T08:24:37.041Z,101715.09
2023-04-15T08:29:42.769Z,101732.22
2023-04-15T08:34:46.332Z,101728.13
2023-04-15T08:39:50.299Z,101723.16
2023-04-15T08:44:54.082Z,101735.16
2023-04-15T08:49:58.875Z,101730.41
2023-04-15T08:55:03.727Z,101740.31
2023-04-15T09:00:07.937Z,101731.53
2023-04-15T09:05:11.459Z,101748.84
2023-04-15T09:10:14.977Z,101751.97
2023-04-15T09:15:19.234Z,101766.28
2023-04-15T09:20:23.456Z,101765.09
2023-04-15T09:25:28.733Z,101766.59
2023-04-15T09:30:32.357Z,101774.88
2023-04-15T09:35:37.111Z,101764.91
2023-04-15T09:40:43.688Z,101770.72
2023-04-15T09:45:52.291Z,101780.56
2023-04-15T09:50:59.353Z,101796.06
2023-04-15T09:56:03.810Z,101798.63
2023-04-15T10:01:09.495Z,101797.22
2023-04-15T10:06:13.650Z,101809.28
2023-04-15T10:11:17.855Z,101824.63
2023-04-15T10:16:23.471Z,101823.97
2023-04-15T10:21:28.799Z,101827.63
2023-04-15T10:26:32.681Z,101841.06
2023-04-15T10:31:38.606Z,101848.53
2023-04-15T10:36:42.308Z,101868.16
2023-04-15T10:41:46.032Z,101877.81
2023-04-15T10:46:52.164Z,101870.31
2023-04-15T10:52:00.162Z,101879.59
2023-04-15T10:57:06.891Z,101893.09
2023-04-15T11:02:14.863Z,101883.25
2023-04-15T11:07:38.831Z,101886.59
2023-04-15T11:12:42.353Z,101890.94
2023-04-15T11:17:46.641Z,101896.28
2023-04-15T11:23:13.809Z,101906.28
2023-04-15T11:28:18.342Z,101902.31
2023-04-15T11:33:22.677Z,101901.44
2023-04-15T11:38:26.354Z,101921.91
2023-04-15T11:43:32.384Z,101922.94
2023-04-15T11:48:37.211Z,101920.28
2023-04-15T11:53:42.854Z,101935.31
2023-04-15T11:58:46.683Z,101940.91
2023-04-15T12:03:52.663Z,101947.78
2023-04-15T12:09:07.064Z,101948.50
2023-04-15T12:14:28.818Z,101943.59
2023-04-15T12:19:38.453Z,101956.78
2023-04-15T12:24:42.688Z,101957.59
2023-04-15T12:29:45.210Z,101965.84
2023-04-15T12:34:51.932Z,101974.97
2023-04-15T12:39:54.685Z,101980.03
2023-04-15T12:44:57.289Z,101983.22
2023-04-15T12:49:59.638Z,101986.66
2023-04-15T12:55:02.064Z,101997.06
2023-04-15T13:00:08.615Z,101998.34
2023-04-15T13:05:11.398Z,101996.88
2023-04-15T13:10:13.801Z,102003.78
2023-04-15T13:15:16.337Z,102028.13
2023-04-15T13:20:18.882Z,102022.47
2023-04-15T13:25:21.350Z,102027.88
2023-04-15T13:30:23.915Z,102029.06
2023-04-15T13:35:26.611Z,102035.63
2023-04-15T13:40:29.124Z,102033.97
2023-04-15T13:45:32.127Z,102042.34
2023-04-15T13:50:34.580Z,102038.72
2023-04-15T13:55:39.145Z,102047.41
2023-04-15T14:00:41.722Z,102054.88
2023-04-15T14:05:44.973Z,102052.44
2023-04-15T14:10:48.773Z,102065.53
2023-04-15T14:15:51.213Z,102071.75
2023-04-15T14:20:53.862Z,102069.25
2023-04-15T14:25:56.426Z,102090.19
2023-04-15T14:30:58.792Z,102078.00
2023-04-15T14:36:01.240Z,102082.19
2023-04-15T14:41:03.681Z,102091.09
2023-04-15T14:46:07.052Z,102090.88
2023-04-15T14:51:09.419Z,102103.09
2023-04-15T14:56:12.140Z,102111.50
2023-04-15T15:01:14.540Z,102116.81
2023-04-15T15:06:17.067Z,102114.00
2023-04-15T15:11:19.422Z,102119.28
2023-04-15T15:16:21.866Z,102133.19
2023-04-15T15:21:24.381Z,102137.94
2023-04-15T15:26:28.369Z,102142.66
2023-04-15T15:31:30.896Z,102147.34
2023-04-15T15:36:33.317Z,102158.72
2023-04-15T15:41:36.847Z,102171.97
2023-04-15T15:46:39.352Z,102183.06
2023-04-15T15:51:41.942Z,102180.19
2023-04-15T15:56:44.399Z,102185.97
2023-04-15T16:01:46.944Z,102198.94
2023-04-15T16:06:49.518Z,102205.03
2023-04-15T16:11:51.970Z,102211.06
2023-04-15T16:16:54.450Z,102206.81
2023-04-15T16:21:57.272Z,102231.53
2023-04-15T16:26:59.682Z,102243.41
2023-04-15T16:32:02.154Z,102253.06
2023-04-15T16:37:04.874Z,102261.88
2023-04-15T16:42:07.766Z,102271.28
2023-04-15T16:47:12.245Z,102280.09
2023-04-15T16:52:14.728Z,102298.81
2023-04-15T16:57:17.097Z,102308.19
2023-04-15T17:02:20.871Z,102314.25
2023-04-15T17:07:23.364Z,102320.56
2023-04-15T17:12:25.956Z,102330.16
2023-04-15T17:17:28.433Z,102326.44
2023-04-15T17:22:31.071Z,102344.13
2023-04-15T17:27:34.033Z,102336.44
2023-04-15T17:32:44.999Z,102352.75
2023-04-15T17:38:07.344Z,102352.09
2023-04-15T17:43:29.709Z,102359.94
2023-04-15T17:48:52.023Z,102369.53
2023-04-15T17:54:14.289Z,102372.56
2023-04-15T17:59:36.648Z,102371.66
2023-04-15T18:04:59.164Z,102384.59
2023-04-15T18:10:22.254Z,102392.56
2023-04-15T18:15:46.259Z,102387.91
2023-04-15T18:21:11.033Z,102390.00
2023-04-15T18:26:14.814Z,102396.88
2023-04-15T18:31:17.396Z,102409.53
2023-04-15T18:36:19.977Z,102412.41
2023-04-15T18:41:22.716Z,102411.94
2023-04-15T18:46:25.333Z,102427.88
2023-04-15T18:51:28.024Z,102429.94
2023-04-15T18:56:34.000Z,102448.13
2023-04-15T19:01:36.956Z,102457.03
2023-04-15T19:06:39.508Z,102456.81
2023-04-15T19:11:42.304Z,102458.34
2023-04-15T19:16:44.861Z,102459.22
2023-04-15T19:21:50.301Z,102465.34
2023-04-15T19:26:52.765Z,102477.91
2023-04-15T19:31:55.601Z,102493.56
2023-04-15T19:36:58.090Z,102488.84
2023-04-15T19:42:00.549Z,102493.94
2023-04-15T19:47:03.073Z,102485.16
2023-04-15T19:52:05.541Z,102493.06
2023-04-15T19:57:07.923Z,102503.16
2023-04-15T20:02:10.403Z,102501.25
2023-04-15T20:07:12.896Z,102504.59
2023-04-15T20:12:49.233Z,102504.66
2023-04-15T20:17:37.999Z,102518.56
2023-04-15T20:22:40.513Z,102528.00
2023-04-15T20:27:42.832Z,102543.94
2023-04-15T20:32:45.260Z,102535.66
2023-04-15T20:37:49.219Z,102540.72
2023-04-15T20:42:51.838Z,102554.38
2023-04-15T20:47:55.542Z,102560.59
2023-04-15T20:52:58.029Z,102554.91
2023-04-15T20:58:00.584Z,102564.16
2023-04-15T21:03:03.166Z,102560.25
2023-04-15T21:08:06.205Z,102562.34
2023-04-15T21:13:08.700Z,102561.16
2023-04-15T21:18:11.154Z,102563.06
2023-04-15T21:23:13.529Z,102575.59
2023-04-15T21:28:15.874Z,102577.75
2023-04-15T21:33:20.611Z,102582.28
2023-04-15T21:38:23.585Z,102581.72
2023-04-15T21:43:26.214Z,102579.22
2023-04-15T21:48:28.608Z,102589.47
2023-04-15T21:53:31.051Z,102604.34
2023-04-15T21:58:33.404Z,102605.44
2023-04-15T22:11:28.788Z,102620.34
2023-04-15T22:16:31.448Z,102618.72
2023-04-15T22:21:33.852Z,102625.72
2023-04-15T22:26:36.209Z,102630.84
2023-04-15T22:31:39.852Z,102625.34
2023-04-15T22:36:42.284Z,102636.97
2023-04-15T22:41:48.212Z,102635.28
2023-04-15T22:46:53.405Z,102635.06
2023-04-15T22:51:56.223Z,102640.41
2023-04-15T22:56:58.775Z,102640.41
2023-04-15T23:02:01.308Z,102641.41
2023-04-15T23:07:03.772Z,102647.78
2023-04-15T23:12:06.514Z,102650.31
2023-04-15T23:17:08.845Z,102660.47
2023-04-15T23:22:12.404Z,102659.47
2023-04-15T23:27:14.774Z,102671.59
2023-04-15T23:32:17.296Z,102681.59
2023-04-15T23:37:19.767Z,102684.56
2023-04-15T23:42:23.528Z,102682.03
2023-04-15T23:47:27.168Z,102697.50
2023-04-15T23:52:29.646Z,102697.72
2023-04-15T23:57:31.996Z,102697.53
